createdAt,value
2022-11-27T00:02:00.835Z,98479.66
2022-11-27T00:07:02.522Z,98483.75
2022-11-27T00:12:04.604Z,98488.63
2022-11-27T00:17:06.334Z,98491.28
2022-11-27T00:22:08.108Z,98480.25
2022-11-27T00:27:10.189Z,98480.31
2022-11-27T00:32:13.209Z,98475.28
2022-11-27T00:37:15.074Z,98454.28
2022-11-27T00:42:16.819Z,98447.13
2022-11-27T00:47:19.566Z,98446.94
2022-11-27T00:52:21.258Z,98437.16
2022-11-27T00:57:23.109Z,98441.72
2022-11-27T01:02:24.882Z,98448.59
2022-11-27T01:07:26.862Z,98454.72
2022-11-27T01:12:28.676Z,98445.38
2022-11-27T01:17:30.421Z,98441.38
2022-11-27T01:22:33.318Z,98435.53
2022-11-27T01:27:35.088Z,98425.41
2022-11-27T01:32:36.764Z,98429.69
2022-11-27T01:37:38.460Z,98436.03
2022-11-27T01:42:40.196Z,98427.38
2022-11-27T01:47:58.284Z,98434.91
2022-11-27T01:53:05.656Z,98423.19
2022-11-27T01:58:11.280Z,98406.41
2022-11-27T02:03:13.145Z,98405.09
2022-11-27T02:08:16.869Z,98396.72
2022-11-27T02:13:35.295Z,98391.69
2022-11-27T02:18:59.323Z,98393.81
2022-11-27T02:24:07.057Z,98386.56
2022-11-27T02:29:11.029Z,98391.22
2022-11-27T02:34:36.255Z,98386.66
2022-11-27T02:39:45.145Z,98373.81
2022-11-27T02:45:00.564Z,98374.16
2022-11-27T02:50:03.570Z,98353.41
2022-11-27T02:55:11.337Z,98369.06
2022-11-27T03:00:14.456Z,98359.31
2022-11-27T03:05:20.359Z,98355.28
2022-11-27T03:10:44.159Z,98349.69
2022-11-27T03:16:01.302Z,98357.53
2022-11-27T03:21:38.835Z,98349.97
2022-11-27T03:26:41.113Z,98343.25
2022-11-27T03:31:43.980Z,98339.56
2022-11-27T03:36:46.273Z,98335.44
2022-11-27T03:42:17.228Z,98337.13
2022-11-27T03:47:46.995Z,98332.00
2022-11-27T03:53:07.694Z,98327.28
2022-11-27T03:58:19.303Z,98334.34
2022-11-27T04:03:25.521Z,98330.41
2022-11-27T04:08:27.391Z,98319.25
2022-11-27T04:13:29.330Z,98313.56
2022-11-27T04:18:31.089Z,98314.69
2022-11-27T04:23:32.890Z,98308.16
2022-11-27T04:28:34.703Z,98297.47
2022-11-27T04:33:36.463Z,98310.13
2022-11-27T04:38:38.125Z,98306.75
2022-11-27T04:43:39.817Z,98318.03
2022-11-27T04:48:41.557Z,98335.03
2022-11-27T04:53:43.345Z,98336.91
2022-11-27T04:58:45.031Z,98349.91
2022-11-27T05:03:47.916Z,98340.81
2022-11-27T05:08:49.671Z,98332.81
2022-11-27T05:14:11.541Z,98340.25
2022-11-27T05:19:14.441Z,98339.63
2022-11-27T05:24:17.850Z,98340.81
2022-11-27T05:29:20.996Z,98339.16
2022-11-27T05:34:22.969Z,98346.50
2022-11-27T05:39:24.796Z,98329.75
2022-11-27T05:44:26.925Z,98316.44
2022-11-27T05:49:28.654Z,98311.53
2022-11-27T05:54:30.557Z,98300.06
2022-11-27T05:59:32.318Z,98293.69
2022-11-27T06:04:34.675Z,98300.38
2022-11-27T06:09:39.436Z,98299.34
2022-11-27T06:14:42.014Z,98293.19
2022-11-27T06:19:43.939Z,98303.34
2022-11-27T06:24:45.639Z,98305.97
2022-11-27T06:29:47.338Z,98305.84
2022-11-27T06:34:49.008Z,98307.34
2022-11-27T06:39:51.285Z,98319.34
2022-11-27T06:44:52.971Z,98321.31
2022-11-27T06:49:54.656Z,98318.78
2022-11-27T06:54:56.354Z,98309.66
2022-11-27T06:59:58.015Z,98306.88
2022-11-27T07:04:59.670Z,98307.06
2022-11-27T07:10:01.394Z,98311.63
2022-11-27T07:15:04.531Z,98315.91
2022-11-27T07:20:07.214Z,98305.75
2022-11-27T07:25:09.188Z,98313.03
2022-11-27T07:30:11.335Z,98303.88
2022-11-27T07:35:13.197Z,98296.06
2022-11-27T07:40:15.180Z,98282.91
2022-11-27T07:45:16.962Z,98267.88
2022-11-27T07:50:18.696Z,98254.53
2022-11-27T07:55:20.367Z,98258.56
2022-11-27T08:00:22.324Z,98254.03
2022-11-27T08:05:24.070Z,98250.03
2022-11-27T08:10:25.780Z,98237.81
2022-11-27T08:15:27.529Z,98243.53
2022-11-27T08:20:30.016Z,98228.91
2022-11-27T08:25:32.197Z,98228.81
2022-11-27T08:30:34.001Z,98241.16
2022-11-27T08:35:36.063Z,98238.50
2022-11-27T08:40:37.851Z,98234.63
2022-11-27T08:45:39.772Z,98225.44
2022-11-27T08:50:41.662Z,98224.00
2022-11-27T08:55:44.359Z,98220.13
2022-11-27T09:00:46.113Z,98217.00
2022-11-27T09:05:47.802Z,98218.19
2022-11-27T09:10:49.557Z,98222.31
2022-11-27T09:15:51.321Z,98228.59
2022-11-27T09:21:01.596Z,98224.41
2022-11-27T09:26:06.144Z,98216.34
2022-11-27T09:31:09.988Z,98217.97
2022-11-27T09:36:15.708Z,98208.28
2022-11-27T09:41:36.587Z,98201.94
2022-11-27T09:46:41.181Z,98198.38
2022-11-27T09:51:54.581Z,98194.81
2022-11-27T09:56:58.320Z,98204.19
2022-11-27T10:02:00.260Z,98195.25
2022-11-27T10:07:20.128Z,98186.94
2022-11-27T10:12:38.317Z,98170.25
2022-11-27T10:17:52.414Z,98169.38
2022-11-27T10:23:28.806Z,98159.81
2022-11-27T10:28:40.229Z,98147.56
2022-11-27T10:33:46.233Z,98143.59
2022-11-27T10:38:48.964Z,98148.63
2022-11-27T10:43:56.266Z,98128.22
2022-11-27T10:48:58.414Z,98123.63
2022-11-27T10:54:02.405Z,98131.13
2022-11-27T10:59:18.629Z,98129.47
2022-11-27T11:04:38.063Z,98123.25
2022-11-27T11:09:47.013Z,98115.34
2022-11-27T11:15:00.384Z,98107.66
2022-11-27T11:20:18.816Z,98112.03
2022-11-27T11:25:22.122Z,98102.66
2022-11-27T11:30:28.375Z,98108.28
2022-11-27T11:35:37.012Z,98097.03
2022-11-27T11:40:40.054Z,98110.38
2022-11-27T11:45:48.790Z,98098.28
2022-11-27T11:50:59.920Z,98094.75
2022-11-27T11:56:10.814Z,98091.59
2022-11-27T12:01:31.241Z,98084.34
2022-11-27T12:06:48.133Z,98082.03
2022-11-27T12:12:01.487Z,98066.16
2022-11-27T12:17:07.173Z,98058.66
2022-11-27T12:22:37.590Z,98043.22
2022-11-27T12:27:59.899Z,98038.84
2022-11-27T12:33:27.167Z,98028.16
2022-11-27T12:38:34.756Z,98005.44
2022-11-27T12:43:51.977Z,97994.97
2022-11-27T12:48:58.808Z,97990.78
2022-11-27T12:54:14.443Z,97977.84
2022-11-27T12:59:33.135Z,97964.66
2022-11-27T13:04:44.126Z,97956.72
2022-11-27T13:09:50.531Z,97946.66
2022-11-27T13:15:00.697Z,97947.50
2022-11-27T13:20:05.962Z,97936.41
2022-11-27T13:25:14.566Z,97949.50
2022-11-27T13:30:21.307Z,97946.56
2022-11-27T13:35:29.347Z,97944.25
2022-11-27T13:40:37.386Z,97950.25
2022-11-27T13:45:39.846Z,97942.28
2022-11-27T13:50:45.532Z,97939.72
2022-11-27T13:55:56.639Z,97925.91
2022-11-27T14:01:00.024Z,97909.06
2022-11-27T14:06:01.931Z,97909.28
2022-11-27T14:11:08.571Z,97888.78
2022-11-27T14:16:34.204Z,97898.84
2022-11-27T14:21:41.742Z,97902.63
2022-11-27T14:26:43.705Z,97892.66
2022-11-27T14:31:45.478Z,97897.66
2022-11-27T14:36:52.911Z,97887.56
2022-11-27T14:41:58.302Z,97889.22
2022-11-27T14:47:06.620Z,97897.97
2022-11-27T14:52:16.362Z,97886.28
2022-11-27T14:57:36.533Z,97885.91
2022-11-27T15:02:38.400Z,97889.53
2022-11-27T15:07:47.915Z,97879.94
2022-11-27T15:12:52.551Z,97867.63
2022-11-27T15:17:58.022Z,97859.69
2022-11-27T15:23:00.153Z,97852.19
2022-11-27T15:28:02.820Z,97840.88
2022-11-27T15:33:04.636Z,97842.53
2022-11-27T15:38:10.861Z,97831.22
2022-11-27T15:43:16.315Z,97836.66
2022-11-27T15:48:19.109Z,97822.50
2022-11-27T15:53:20.789Z,97819.16
2022-11-27T15:58:22.468Z,97819.78
2022-11-27T16:03:24.225Z,97817.06
2022-11-27T16:08:25.963Z,97810.81
2022-11-27T16:13:28.041Z,97812.09
2022-11-27T16:18:32.753Z,97798.72
2022-11-27T16:23:35.219Z,97793.34
2022-11-27T16:28:37.327Z,97791.31
2022-11-27T16:33:39.244Z,97776.72
2022-11-27T16:38:42.249Z,97768.72
2022-11-27T16:43:46.756Z,97751.22
2022-11-27T16:48:50.008Z,97740.28
2022-11-27T16:53:54.748Z,97725.09
2022-11-27T16:59:02.735Z,97713.47
2022-11-27T17:04:09.021Z,97705.56
2022-11-27T17:09:11.046Z,97692.66
2022-11-27T17:14:12.787Z,97684.94
2022-11-27T17:19:16.130Z,97675.34
2022-11-27T17:24:19.798Z,97667.19
2022-11-27T17:29:22.976Z,97672.78
2022-11-27T17:34:24.759Z,97661.31
2022-11-27T17:39:26.783Z,97661.25
2022-11-27T17:44:28.710Z,97648.38
2022-11-27T17:49:30.378Z,97647.75
2022-11-27T17:54:32.028Z,97649.28
2022-11-27T17:59:35.073Z,97653.09
2022-11-27T18:04:36.908Z,97643.75
2022-11-27T18:09:39.136Z,97643.91
2022-11-27T18:14:41.061Z,97646.38
2022-11-27T18:19:43.352Z,97646.97
2022-11-27T18:24:45.866Z,97633.03
2022-11-27T18:29:47.620Z,97628.09
2022-11-27T18:34:53.031Z,97628.16
2022-11-27T18:39:54.818Z,97618.28
2022-11-27T18:44:56.519Z,97615.19
2022-11-27T18:49:59.680Z,97610.44
2022-11-27T18:55:02.871Z,97609.97
2022-11-27T19:00:04.845Z,97595.22
2022-11-27T19:05:07.287Z,97588.72
2022-11-27T19:10:09.469Z,97587.09
2022-11-27T19:15:11.337Z,97577.75
2022-11-27T19:20:13.925Z,97577.31
2022-11-27T19:25:16.861Z,97559.75
2022-11-27T19:30:18.636Z,97555.53
2022-11-27T19:35:24.456Z,97549.97
2022-11-27T19:40:29.958Z,97553.13
2022-11-27T19:45:35.122Z,97549.84
2022-11-27T19:50:36.767Z,97536.13
2022-11-27T19:55:38.669Z,97523.56
2022-11-27T20:00:41.217Z,97515.66
2022-11-27T20:05:42.998Z,97511.88
2022-11-27T20:10:49.667Z,97517.38
2022-11-27T20:15:52.833Z,97503.16
2022-11-27T20:21:06.158Z,97494.38
2022-11-27T20:26:13.521Z,97492.69
2022-11-27T20:31:18.349Z,97502.41
2022-11-27T20:36:21.842Z,97485.56
2022-11-27T20:41:24.637Z,97481.97
2022-11-27T20:46:27.053Z,97475.03
2022-11-27T20:51:33.531Z,97461.31
2022-11-27T20:56:44.737Z,97465.06
2022-11-27T21:01:46.750Z,97454.47
2022-11-27T21:06:50.187Z,97448.38
2022-11-27T21:11:54.114Z,97444.13
2022-11-27T21:17:04.289Z,97432.09
2022-11-27T21:22:08.283Z,97436.31
2022-11-27T21:27:11.134Z,97429.22
2022-11-27T21:32:13.052Z,97423.97
2022-11-27T21:37:15.144Z,97425.84
2022-11-27T21:42:17.903Z,97412.97
2022-11-27T21:47:19.613Z,97403.34
2022-11-27T21:52:21.632Z,97416.91
2022-11-27T21:57:23.744Z,97403.78
2022-11-27T22:02:25.670Z,97402.56
2022-11-27T22:07:27.475Z,97387.59
2022-11-27T22:12:29.294Z,97379.69
2022-11-27T22:17:31.188Z,97380.28
2022-11-27T22:22:33.025Z,97359.63
2022-11-27T22:27:34.740Z,97359.28
2022-11-27T22:32:36.583Z,97350.78
2022-11-27T22:37:38.736Z,97345.50
2022-11-27T22:42:40.560Z,97335.94
2022-11-27T22:47:42.680Z,97330.81
2022-11-27T22:52:44.717Z,97327.22
2022-11-27T22:57:46.402Z,97325.91
2022-11-27T23:02:48.491Z,97316.94
2022-11-27T23:07:50.301Z,97316.00
2022-11-27T23:12:52.065Z,97306.44
2022-11-27T23:17:53.734Z,97299.13
2022-11-27T23:22:55.613Z,97308.47
2022-11-27T23:27:57.333Z,97297.16
2022-11-27T23:32:59.229Z,97290.84
2022-11-27T23:38:01.415Z,97291.28
2022-11-27T23:43:03.101Z,97288.34
2022-11-27T23:48:04.837Z,97272.91
2022-11-27T23:53:06.624Z,97276.44
2022-11-27T23:58:08.308Z,97273.88
